createdAt,value
2023-11-14T00:02:17.361Z,7.38
2023-11-14T00:06:23.809Z,7.52
2023-11-14T00:10:57.239Z,7.67
2023-11-14T00:14:55.661Z,7.78
2023-11-14T00:18:59.196Z,7.91
2023-11-14T00:22:50.832Z,8.06
2023-11-14T00:26:58.924Z,8.16
2023-11-14T00:30:57.609Z,8.27
2023-11-14T00:34:50.411Z,8.40
2023-11-14T00:39:03.003Z,8.55
2023-11-14T00:43:20.075Z,8.66
2023-11-14T00:47:11.484Z,8.76
2023-11-14T00:51:17.562Z,8.86
2023-11-14T00:55:23.588Z,8.99
2023-11-14T00:59:20.755Z,9.09
2023-11-14T01:03:10.752Z,9.21
2023-11-14T01:07:10.728Z,9.34
2023-11-14T01:11:01.819Z,9.43
2023-11-14T01:14:24.802Z,9.58
2023-11-14T01:17:47.526Z,9.68
2023-11-14T01:21:49.945Z,9.74
2023-11-14T01:25:50.336Z,9.79
2023-11-14T01:29:45.310Z,9.74
2023-11-14T01:33:30.442Z,9.66
2023-11-14T01:37:27.975Z,9.56
2023-11-14T01:40:52.289Z,9.49
2023-11-14T01:44:31.925Z,9.45
2023-11-14T01:47:57.996Z,9.43
2023-11-14T01:51:22.796Z,9.48
2023-11-14T01:54:52.337Z,9.54
2023-11-14T01:58:29.856Z,9.56
2023-11-14T02:02:21.485Z,9.58
2023-11-14T02:06:12.537Z,9.59
2023-11-14T02:09:40.698Z,9.61
2023-11-14T02:13:08.441Z,9.71
2023-11-14T02:17:17.954Z,9.85
2023-11-14T02:20:58.982Z,10.01
2023-11-14T02:25:03.511Z,10.10
2023-11-14T02:28:31.610Z,10.18
2023-11-14T02:32:02.005Z,10.24
2023-11-14T02:35:58.113Z,10.28
2023-11-14T02:39:24.896Z,10.36
2023-11-14T02:42:50.514Z,10.37
2023-11-14T02:46:26.752Z,10.35
2023-11-14T02:50:43.766Z,10.32
2023-11-14T02:54:08.712Z,10.20
2023-11-14T02:57:45.227Z,10.06
2023-11-14T03:01:40.459Z,9.94
2023-11-14T03:05:06.851Z,9.81
2023-11-14T03:08:32.606Z,9.68
2023-11-14T03:11:55.478Z,9.56
2023-11-14T03:15:50.930Z,9.44
2023-11-14T03:19:51.099Z,9.33
2023-11-14T03:23:49.808Z,9.37
2023-11-14T03:27:28.332Z,9.44
2023-11-14T03:30:56.381Z,9.44
2023-11-14T03:34:36.763Z,9.42
2023-11-14T03:38:14.668Z,9.40
2023-11-14T03:41:56.115Z,9.40
2023-11-14T03:45:45.992Z,9.37
2023-11-14T03:49:48.429Z,9.34
2023-11-14T03:53:50.825Z,9.32
2023-11-14T03:57:27.096Z,9.39
2023-11-14T04:01:26.303Z,9.45
2023-11-14T04:05:29.358Z,9.51
2023-11-14T04:09:22.352Z,9.53
2023-11-14T04:13:20.538Z,9.50
2023-11-14T04:17:23.044Z,9.45
2023-11-14T04:21:08.040Z,9.41
2023-11-14T04:25:10.813Z,9.38
2023-11-14T04:29:09.342Z,9.37
2023-11-14T04:33:02.943Z,9.36
2023-11-14T04:36:45.002Z,9.33
2023-11-14T04:40:49.242Z,9.31
2023-11-14T04:44:42.506Z,9.27
2023-11-14T04:48:46.927Z,9.26
2023-11-14T04:52:43.549Z,9.23
2023-11-14T04:56:18.546Z,9.23
2023-11-14T04:59:40.620Z,9.26
2023-11-14T05:03:43.449Z,9.28
2023-11-14T05:07:50.341Z,9.28
2023-11-14T05:11:31.239Z,9.27
2023-11-14T05:15:27.491Z,9.23
2023-11-14T05:19:28.792Z,9.22
2023-11-14T05:23:25.035Z,9.20
2023-11-14T05:26:49.911Z,9.19
2023-11-14T05:30:32.769Z,9.15
2023-11-14T05:34:36.065Z,9.13
2023-11-14T05:38:39.378Z,9.07
2023-11-14T05:42:42.139Z,9.03
2023-11-14T05:47:26.306Z,8.94
2023-11-14T05:51:29.994Z,8.86
2023-11-14T05:55:53.899Z,8.76
2023-11-14T05:59:58.532Z,8.66
2023-11-14T06:04:08.103Z,8.55
2023-11-14T06:08:11.107Z,8.49
2023-11-14T06:12:18.823Z,8.45
2023-11-14T06:16:27.422Z,8.47
2023-11-14T06:20:39.378Z,8.52
2023-11-14T06:25:09.962Z,8.55
2023-11-14T06:29:32.587Z,8.61
2023-11-14T06:33:45.100Z,8.62
2023-11-14T06:37:49.857Z,8.62
2023-11-14T06:41:59.933Z,8.66
2023-11-14T06:46:03.069Z,8.68
2023-11-14T06:49:52.221Z,8.69
2023-11-14T06:53:58.101Z,8.71
2023-11-14T06:57:54.884Z,8.69
2023-11-14T07:01:52.881Z,8.70
2023-11-14T07:05:57.600Z,8.72
2023-11-14T07:09:56.494Z,8.73
2023-11-14T07:13:32.768Z,8.77
2023-11-14T07:17:26.078Z,8.77
2023-11-14T07:20:56.033Z,8.78
2023-11-14T07:28:27.733Z,8.88
2023-11-14T07:32:35.883Z,8.93
2023-11-14T07:36:27.257Z,8.98
2023-11-14T07:40:35.186Z,9.06
2023-11-14T07:44:48.929Z,9.19
2023-11-14T07:49:13.281Z,9.42
2023-11-14T07:53:08.564Z,9.70
2023-11-14T07:57:21.975Z,10.01
2023-11-14T08:01:31.521Z,10.27
2023-11-14T08:05:37.202Z,10.48
2023-11-14T08:09:43.541Z,10.65
2023-11-14T08:13:21.135Z,10.77
2023-11-14T08:17:04.045Z,10.98
2023-11-14T08:20:39.060Z,11.05
2023-11-14T08:24:06.455Z,11.19
2023-11-14T08:27:36.067Z,11.33
2023-11-14T08:31:29.434Z,11.42
2023-11-14T08:34:53.551Z,11.59
2023-11-14T08:38:23.689Z,11.62
2023-11-14T08:41:51.069Z,11.77
2023-11-14T08:45:37.035Z,11.85
2023-11-14T08:49:23.259Z,11.79
2023-11-14T08:52:55.881Z,11.79
2023-11-14T08:56:43.841Z,11.79
2023-11-14T09:00:14.868Z,11.77
2023-11-14T09:03:50.538Z,11.79
2023-11-14T09:07:15.719Z,11.79
2023-11-14T09:10:39.999Z,11.87
2023-11-14T09:14:35.349Z,11.87
2023-11-14T09:18:12.827Z,11.83
2023-11-14T09:21:43.714Z,11.78
2023-11-14T09:25:12.752Z,11.85
2023-11-14T09:28:43.244Z,11.84
2023-11-14T09:32:21.203Z,11.82
2023-11-14T09:36:00.034Z,11.77
2023-11-14T09:39:45.127Z,11.83
2023-11-14T09:43:31.342Z,11.91
2023-11-14T09:47:10.994Z,11.87
2023-11-14T09:50:49.054Z,11.94
2023-11-14T09:54:23.152Z,12.09
2023-11-14T09:57:50.190Z,12.07
2023-11-14T10:01:28.414Z,11.85
2023-11-14T10:05:13.972Z,11.85
2023-11-14T10:08:52.324Z,11.98
2023-11-14T10:12:39.468Z,11.95
2023-11-14T10:16:44.010Z,12.18
2023-11-14T10:20:47.340Z,12.48
2023-11-14T10:24:57.487Z,12.51
2023-11-14T10:28:25.032Z,12.51
2023-11-14T10:32:25.636Z,12.47
2023-11-14T10:36:10.809Z,12.38
2023-11-14T10:39:59.211Z,12.24
2023-11-14T10:44:02.122Z,12.23
2023-11-14T10:47:42.743Z,12.23
2023-11-14T10:51:13.508Z,12.29
2023-11-14T10:55:03.171Z,12.46
2023-11-14T10:58:36.670Z,12.46
2023-11-14T11:02:05.832Z,12.57
2023-11-14T11:05:36.548Z,12.61
2023-11-14T11:09:29.536Z,12.52
2023-11-14T11:13:19.011Z,12.42
2023-11-14T11:17:06.709Z,12.20
2023-11-14T11:21:03.909Z,12.13
2023-11-14T11:24:40.284Z,12.21
2023-11-14T11:28:24.135Z,12.15
2023-11-14T11:32:30.822Z,12.22
2023-11-14T11:36:16.046Z,12.42
2023-11-14T11:40:40.206Z,12.32
2023-11-14T11:44:32.118Z,12.27
2023-11-14T11:48:04.395Z,12.16
2023-11-14T11:51:33.238Z,12.11
2023-11-14T11:55:29.881Z,11.98
2023-11-14T11:59:11.792Z,11.84
2023-11-14T12:02:41.964Z,11.79
2023-11-14T12:06:26.988Z,11.80
2023-11-14T12:10:08.049Z,11.84
2023-11-14T12:14:00.613Z,11.82
2023-11-14T12:17:27.716Z,11.90
2023-11-14T12:21:10.369Z,11.98
2023-11-14T12:24:42.059Z,11.95
2023-11-14T12:28:27.437Z,11.84
2023-11-14T12:31:56.589Z,11.78
2023-11-14T12:35:27.214Z,11.61
2023-11-14T12:39:14.062Z,11.57
2023-11-14T12:42:44.218Z,11.57
2023-11-14T12:46:22.470Z,11.56
2023-11-14T12:49:52.601Z,11.51
2023-11-14T12:53:32.322Z,11.42
2023-11-14T12:56:57.709Z,11.45
2023-11-14T13:00:30.350Z,11.45
2023-11-14T13:04:12.153Z,11.33
2023-11-14T13:08:07.322Z,11.14
2023-11-14T13:11:41.573Z,11.00
2023-11-14T13:15:17.368Z,10.99
2023-11-14T13:19:13.480Z,10.98
2023-11-14T13:22:52.180Z,10.96
2023-11-14T13:26:53.285Z,10.92
2023-11-14T13:30:53.363Z,10.84
2023-11-14T13:34:46.586Z,10.79
2023-11-14T13:38:28.657Z,10.72
2023-11-14T13:42:42.751Z,10.62
2023-11-14T13:46:47.546Z,10.56
2023-11-14T13:50:24.154Z,10.55
2023-11-14T13:54:26.629Z,10.47
2023-11-14T13:58:44.137Z,10.46
2023-11-14T14:02:17.621Z,10.43
2023-11-14T14:05:45.006Z,10.34
2023-11-14T14:09:41.186Z,10.31
2023-11-14T14:13:22.957Z,10.25
2023-11-14T14:16:56.212Z,10.19
2023-11-14T14:20:46.624Z,10.10
2023-11-14T14:24:26.011Z,10.07
2023-11-14T14:28:20.906Z,10.04
2023-11-14T14:31:53.781Z,9.98
2023-11-14T14:35:32.662Z,9.98
2023-11-14T14:39:37.386Z,9.98
2023-11-14T14:43:03.105Z,9.95
2023-11-14T14:46:26.738Z,9.92
2023-11-14T14:50:32.710Z,9.89
2023-11-14T14:54:21.305Z,9.91
2023-11-14T14:58:11.180Z,9.91
2023-11-14T15:01:53.973Z,9.90
2023-11-14T15:05:35.464Z,9.87
2023-11-14T15:09:34.103Z,9.80
2023-11-14T15:13:14.918Z,9.76
2023-11-14T15:16:48.324Z,9.72
2023-11-14T15:20:42.444Z,9.73
2023-11-14T15:24:44.694Z,9.71
2023-11-14T15:28:34.750Z,9.68
2023-11-14T15:32:02.535Z,9.67
2023-11-14T15:35:46.057Z,9.66
2023-11-14T15:39:26.020Z,9.65
2023-11-14T15:42:59.974Z,9.64
2023-11-14T15:46:30.592Z,9.62
2023-11-14T15:50:16.669Z,9.61
2023-11-14T15:53:40.198Z,9.61
2023-11-14T15:57:10.975Z,9.60
2023-11-14T16:00:39.494Z,9.59
2023-11-14T16:04:04.083Z,9.60
2023-11-14T16:07:38.196Z,9.61
2023-11-14T16:11:12.084Z,9.63
2023-11-14T16:15:03.546Z,9.66
2023-11-14T16:19:23.119Z,9.65
2023-11-14T16:23:06.979Z,9.68
2023-11-14T16:26:50.881Z,9.68
2023-11-14T16:30:53.624Z,9.68
2023-11-14T16:34:45.206Z,9.65
2023-11-14T16:38:35.273Z,9.63
2023-11-14T16:42:59.338Z,9.57
2023-11-14T16:47:06.979Z,9.52
2023-11-14T16:51:07.433Z,9.50
2023-11-14T16:55:16.663Z,9.50
2023-11-14T16:59:28.704Z,9.49
2023-11-14T17:04:00.160Z,9.53
2023-11-14T17:08:05.147Z,9.55
2023-11-14T17:11:24.730Z,9.57
2023-11-14T17:15:32.809Z,9.57
2023-11-14T17:20:05.441Z,9.55
2023-11-14T17:23:12.021Z,9.55
2023-11-14T17:26:15.568Z,9.49
2023-11-14T17:29:18.912Z,9.46
2023-11-14T17:32:22.043Z,9.40
2023-11-14T17:35:25.468Z,9.38
2023-11-14T17:38:28.721Z,9.36
2023-11-14T17:41:32.424Z,9.34
2023-11-14T17:44:35.503Z,9.33
2023-11-14T17:47:38.707Z,9.33
2023-11-14T17:50:41.825Z,9.32
2023-11-14T17:53:44.850Z,9.32
2023-11-14T17:56:47.941Z,9.29
2023-11-14T17:59:50.924Z,9.28
2023-11-14T18:02:57.053Z,9.26
2023-11-14T18:06:02.215Z,9.27
2023-11-14T18:09:05.550Z,9.24
2023-11-14T18:12:08.691Z,9.23
2023-11-14T18:15:14.405Z,9.21
2023-11-14T18:18:18.795Z,9.20
2023-11-14T18:21:23.395Z,9.23
2023-11-14T18:24:26.868Z,9.28
2023-11-14T18:27:29.990Z,9.34
2023-11-14T18:30:33.552Z,9.39
2023-11-14T18:33:36.577Z,9.42
2023-11-14T18:36:39.490Z,9.46
2023-11-14T18:39:42.622Z,9.49
2023-11-14T18:42:45.623Z,9.54
2023-11-14T18:45:48.521Z,9.58
2023-11-14T18:48:52.117Z,9.63
2023-11-14T18:51:55.016Z,9.67
2023-11-14T18:55:02.823Z,9.68
2023-11-14T18:58:07.989Z,9.71
2023-11-14T19:01:11.410Z,9.73
2023-11-14T19:04:20.738Z,9.74
2023-11-14T19:07:27.694Z,9.76
2023-11-14T19:10:31.698Z,9.75
2023-11-14T19:13:34.685Z,9.74
2023-11-14T19:16:37.991Z,9.75
2023-11-14T19:19:41.380Z,9.71
2023-11-14T19:23:36.125Z,9.67
2023-11-14T19:26:09.786Z,9.63
2023-11-14T19:29:14.764Z,9.57
2023-11-14T19:32:17.732Z,9.50
2023-11-14T19:35:20.701Z,9.44
2023-11-14T19:38:23.776Z,9.40
2023-11-14T19:41:26.901Z,9.39
2023-11-14T19:44:31.738Z,9.40
2023-11-14T19:47:37.516Z,9.40
2023-11-14T19:50:41.630Z,9.41
2023-11-14T19:53:44.771Z,9.42
2023-11-14T19:56:50.025Z,9.43
2023-11-14T19:59:53.243Z,9.43
2023-11-14T20:02:58.657Z,9.45
2023-11-14T20:06:03.331Z,9.46
2023-11-14T20:09:07.542Z,9.46
2023-11-14T20:12:10.377Z,9.44
2023-11-14T20:15:16.457Z,9.43
2023-11-14T20:18:20.878Z,9.40
2023-11-14T20:21:28.061Z,9.36
2023-11-14T20:24:32.930Z,9.31
2023-11-14T20:27:36.066Z,9.28
2023-11-14T20:30:39.562Z,9.23
2023-11-14T20:33:42.424Z,9.17
2023-11-14T20:36:45.310Z,9.15
2023-11-14T20:39:48.320Z,9.13
2023-11-14T20:42:51.512Z,9.10
2023-11-14T20:45:56.566Z,9.09
2023-11-14T20:48:59.602Z,9.12
2023-11-14T20:52:02.824Z,9.15
2023-11-14T20:55:06.611Z,9.19
2023-11-14T20:58:11.630Z,9.20
2023-11-14T21:01:14.973Z,9.23
2023-11-14T21:04:18.082Z,9.25
2023-11-14T21:07:21.057Z,9.25
2023-11-14T21:10:24.093Z,9.28
2023-11-14T21:13:27.115Z,9.31
2023-11-14T21:16:30.550Z,9.35
2023-11-14T21:19:33.681Z,9.38
2023-11-14T21:22:36.568Z,9.41
2023-11-14T21:25:39.419Z,9.45
2023-11-14T21:28:42.248Z,9.50
2023-11-14T21:31:45.393Z,9.57
2023-11-14T21:34:48.345Z,9.60
2023-11-14T21:37:51.608Z,9.64
2023-11-14T21:40:55.145Z,9.66
2023-11-14T21:43:59.283Z,9.64
2023-11-14T21:47:03.999Z,9.64
2023-11-14T21:50:07.770Z,9.65
2023-11-14T21:53:10.794Z,9.65
2023-11-14T21:56:14.833Z,9.65
2023-11-14T21:59:17.873Z,9.63
2023-11-14T22:02:20.826Z,9.61
2023-11-14T22:05:23.938Z,9.59
2023-11-14T22:08:26.927Z,9.57
2023-11-14T22:11:30.183Z,9.49
2023-11-14T22:14:33.235Z,9.42
2023-11-14T22:17:37.139Z,9.35
2023-11-14T22:20:40.243Z,9.28
2023-11-14T22:23:43.132Z,9.19
2023-11-14T22:26:46.346Z,9.12
2023-11-14T22:29:50.491Z,9.05
2023-11-14T22:32:54.268Z,8.96
2023-11-14T22:36:00.967Z,8.89
2023-11-14T22:39:05.276Z,8.83
2023-11-14T22:42:08.601Z,8.79
2023-11-14T22:45:13.466Z,8.75
2023-11-14T22:48:17.069Z,8.72
2023-11-14T22:51:20.275Z,8.69
2023-11-14T22:54:25.081Z,8.67
2023-11-14T22:57:28.114Z,8.64
2023-11-14T23:00:45.378Z,8.62
2023-11-14T23:03:49.230Z,8.59
2023-11-14T23:06:53.095Z,8.57
2023-11-14T23:09:57.381Z,8.56
2023-11-14T23:13:00.954Z,8.55
2023-11-14T23:16:04.400Z,8.52
2023-11-14T23:19:10.053Z,8.48
2023-11-14T23:22:12.925Z,8.47
2023-11-14T23:25:15.793Z,8.45
2023-11-14T23:28:19.063Z,8.45
2023-11-14T23:31:21.908Z,8.44
2023-11-14T23:34:24.958Z,8.43
2023-11-14T23:37:27.973Z,8.43
2023-11-14T23:40:31.332Z,8.42
2023-11-14T23:43:34.761Z,8.40
2023-11-14T23:46:37.737Z,8.37
2023-11-14T23:49:40.733Z,8.36
2023-11-14T23:52:43.943Z,8.32
2023-11-14T23:55:47.737Z,8.29
2023-11-14T23:58:50.606Z,8.27
